Time;durP1;ratioP1;P1;durP2;ratioP2;P2;SDS_P1;SDS_P2;PMS_P1;PMS_P2;Temp;Humidity;BMP_temperature;BMP_pressure;BME280_temperature;BME280_humidity;BME280_pressure;Samples;Min_cycle;Max_cycle;Signal;HPM_P1;HPM_P2
2023/10/01 00:02:07;;;;;;;6.17;2.70;;;12.40;99.90;11.70;100857;;;;594898;238;24042;-77
2023/10/01 00:04:35;;;;;;;3.93;2.47;;;12.40;99.90;11.70;100846;;;;594982;238;24012;-80
2023/10/01 00:07:03;;;;;;;5.73;1.83;;;12.40;99.90;11.60;100844;;;;594978;238;24078;-83
2023/10/01 00:09:32;;;;;;;9.50;1.67;;;12.30;99.90;11.60;100843;;;;594286;238;24093;-83
2023/10/01 00:11:59;;;;;;;5.87;1.63;;;12.30;99.90;11.60;100844;;;;594094;238;24158;-82
2023/10/01 00:14:27;;;;;;;3.27;1.50;;;12.30;99.90;11.60;100852;;;;594408;238;24183;-80
2023/10/01 00:16:55;;;;;;;3.80;1.33;;;12.30;99.90;11.60;100855;;;;594265;238;24106;-76
2023/10/01 00:19:23;;;;;;;4.00;1.50;;;12.30;99.90;11.60;100855;;;;594847;236;24084;-80
2023/10/01 00:21:52;;;;;;;6.23;2.70;;;12.30;99.90;11.60;100846;;;;594380;238;24043;-85
2023/10/01 00:24:20;;;;;;;7.07;1.83;;;12.20;99.90;11.60;100833;;;;594204;238;24033;-86
2023/10/01 00:26:48;;;;;;;13.33;2.07;;;12.30;99.90;11.60;100832;;;;594398;236;24067;-85
2023/10/01 00:29:16;;;;;;;6.00;1.70;;;12.30;99.90;11.60;100835;;;;594104;238;24083;-75
2023/10/01 00:31:45;;;;;;;6.97;2.23;;;12.30;99.90;11.60;100836;;;;594715;238;24047;-76
2023/10/01 00:34:12;;;;;;;3.27;1.57;;;12.30;99.90;11.60;100854;;;;594575;238;24074;-78
2023/10/01 00:36:40;;;;;;;3.97;1.37;;;12.30;99.90;11.70;100858;;;;594669;238;24027;-76
2023/10/01 00:39:09;;;;;;;3.80;1.73;;;12.40;99.90;11.70;100850;;;;594285;238;24044;-78
2023/10/01 00:41:36;;;;;;;8.20;1.97;;;12.40;99.90;11.80;100852;;;;594298;236;24079;-76
2023/10/01 00:44:05;;;;;;;12.10;1.97;;;12.50;99.90;11.80;100845;;;;595993;238;24077;-76
2023/10/01 00:46:33;;;;;;;5.57;2.00;;;12.50;99.90;11.80;100847;;;;592821;236;24023;-80
2023/10/01 00:49:00;;;;;;;6.77;1.70;;;12.50;99.90;11.80;100852;;;;595242;238;24133;-81
2023/10/01 00:51:32;;;;;;;6.20;1.80;;;12.50;99.90;11.80;100851;;;;592612;238;24043;-76
2023/10/01 00:53:56;;;;;;;3.57;1.47;;;12.50;99.90;11.90;100856;;;;592012;238;24054;-78
2023/10/01 00:56:27;;;;;;;6.33;2.00;;;12.60;99.90;12.00;100855;;;;592485;238;24098;-85
2023/10/01 00:58:56;;;;;;;5.50;2.07;;;12.70;99.90;12.00;100851;;;;594634;238;24046;-85
2023/10/01 01:01:26;;;;;;;6.70;1.70;;;12.80;99.90;12.10;100846;;;;592214;238;24056;-82
2023/10/01 01:03:55;;;;;;;5.93;2.13;;;12.70;99.90;12.20;100848;;;;592009;238;24041;-83
2023/10/01 01:06:23;;;;;;;4.37;1.37;;;12.80;99.90;12.20;100853;;;;592203;238;24052;-87
2023/10/01 01:08:49;;;;;;;2.30;1.33;;;12.90;99.90;12.30;100852;;;;592288;238;24032;-81
2023/10/01 01:11:16;;;;;;;7.57;1.63;;;12.90;99.90;12.30;100837;;;;594508;238;25117;-86
2023/10/01 01:13:44;;;;;;;9.50;1.60;;;13.00;99.90;12.30;100835;;;;594722;238;24081;-85
2023/10/01 01:16:12;;;;;;;2.80;1.67;;;13.00;99.90;12.40;100824;;;;594559;236;24045;-82
2023/10/01 01:18:43;;;;;;;6.23;1.93;;;13.00;99.90;12.40;100812;;;;594509;238;24054;-85
2023/10/01 01:21:10;;;;;;;5.07;1.80;;;13.10;99.90;12.50;100809;;;;591466;238;24046;-84
2023/10/01 01:23:41;;;;;;;4.63;1.70;;;13.10;99.90;12.50;100814;;;;594168;238;24136;-85
2023/10/01 01:26:07;;;;;;;6.17;2.17;;;13.20;99.90;12.50;100814;;;;594391;238;24114;-83
2023/10/01 01:28:35;;;;;;;8.47;1.73;;;13.20;99.90;12.60;100823;;;;594226;238;24041;-85
2023/10/01 01:31:03;;;;;;;3.90;1.97;;;13.20;99.90;12.60;100824;;;;594712;238;24047;-83
2023/10/01 01:33:32;;;;;;;13.53;2.57;;;13.30;99.90;12.70;100831;;;;592264;238;24133;-83
2023/10/01 01:36:03;;;;;;;6.73;1.53;;;13.30;99.90;12.70;100833;;;;592404;238;24045;-86
2023/10/01 01:38:28;;;;;;;4.20;1.80;;;13.40;99.90;12.70;100822;;;;592436;238;24119;-86
2023/10/01 01:40:58;;;;;;;7.13;2.10;;;13.40;99.90;12.80;100817;;;;595517;236;24078;-84
2023/10/01 01:43:30;;;;;;;7.23;1.87;;;13.40;99.90;12.80;100829;;;;595239;238;24080;-80
2023/10/01 01:45:55;;;;;;;4.37;1.50;;;13.40;99.90;12.80;100825;;;;595030;238;24033;-82
2023/10/01 01:51:04;;;;;;;8.53;2.10;;;13.50;99.90;12.90;100828;;;;593013;238;24042;-83
2023/10/01 01:53:34;;;;;;;2.40;1.60;;;13.50;99.90;12.90;100826;;;;592226;236;24047;-81
2023/10/01 01:55:56;;;;;;;11.00;1.77;;;13.50;99.90;12.80;100805;;;;595452;238;24133;-82
2023/10/01 01:58:26;;;;;;;2.50;1.67;;;13.50;99.90;12.80;100806;;;;595761;238;24033;-78
2023/10/01 02:03:34;;;;;;;1.53;1.43;;;13.50;99.90;12.80;100806;;;;587517;238;24039;-85
2023/10/01 02:06:04;;;;;;;4.83;2.17;;;13.40;99.90;12.80;100810;;;;602203;236;24026;-84
2023/10/01 02:08:49;;;;;;;5.53;1.47;;;13.40;99.90;12.70;100814;;;;595106;238;24028;-85
2023/10/01 02:11:18;;;;;;;5.73;1.90;;;13.40;99.90;12.70;100814;;;;595968;238;24068;-82
2023/10/01 02:13:48;;;;;;;2.80;1.77;;;13.40;99.90;12.70;100825;;;;594942;238;25128;-84
2023/10/01 02:19:11;;;;;;;5.63;1.90;;;13.30;99.90;12.60;100827;;;;595024;238;24070;-85
2023/10/01 02:21:49;;;;;;;6.17;1.90;;;13.30;99.90;12.60;100814;;;;594523;238;24097;-84
2023/10/01 02:24:37;;;;;;;5.33;1.83;;;13.30;99.90;12.60;100806;;;;594858;238;24034;-84
2023/10/01 02:26:59;;;;;;;7.73;2.70;;;13.20;99.90;12.50;100806;;;;593529;238;24081;-85
2023/10/01 02:29:25;;;;;;;3.70;1.77;;;13.20;99.90;12.50;100815;;;;591986;238;24064;-86
2023/10/01 02:31:56;;;;;;;8.90;2.00;;;13.20;99.90;12.50;100805;;;;594828;238;24030;-86
2023/10/01 02:34:21;;;;;;;5.07;1.70;;;13.10;99.90;12.50;100808;;;;591967;238;24074;-85
2023/10/01 02:36:49;;;;;;;6.07;1.93;;;13.10;99.90;12.50;100810;;;;592265;238;24060;-84
2023/10/01 02:39:28;;;;;;;3.80;1.93;;;13.10;99.90;12.40;100800;;;;594604;238;24121;-84
2023/10/01 02:44:39;;;;;;;6.83;1.30;;;13.10;99.90;12.40;100801;;;;592160;238;24042;-86
2023/10/01 02:47:26;;;;;;;2.07;1.57;;;13.00;99.90;12.30;100799;;;;591755;238;24035;-85
2023/10/01 02:49:34;;;;;;;6.13;1.60;;;13.00;99.90;12.30;100797;;;;589717;238;24072;-85
2023/10/01 02:52:03;;;;;;;4.17;1.60;;;12.90;99.90;12.30;100799;;;;594714;238;24022;-85
2023/10/01 02:54:30;;;;;;;2.63;1.53;;;12.90;99.90;12.20;100797;;;;594676;238;24148;-82
2023/10/01 02:57:20;;;;;;;8.50;2.60;;;12.80;99.90;12.20;100796;;;;594660;238;24063;-81
2023/10/01 03:02:32;;;;;;;2.60;1.53;;;12.80;99.90;12.10;100788;;;;592150;238;24157;-85
2023/10/01 03:04:56;;;;;;;3.90;1.97;;;12.80;99.90;12.10;100797;;;;594573;236;24061;-76
2023/10/01 03:07:25;;;;;;;5.43;1.80;;;12.80;99.90;12.10;100798;;;;595798;238;24030;-83
2023/10/01 03:09:57;;;;;;;4.77;1.80;;;12.80;99.90;12.10;100797;;;;595562;237;24054;-77
2023/10/01 03:12:35;;;;;;;7.43;1.87;;;12.80;99.90;12.20;100793;;;;594792;238;24044;-75
2023/10/01 03:17:55;;;;;;;8.70;1.50;;;12.80;99.90;12.20;100797;;;;592267;238;24151;-76
2023/10/01 03:22:59;;;;;;;8.30;2.07;;;12.80;99.90;12.20;100793;;;;599734;236;24027;-76
2023/10/01 03:25:29;;;;;;;7.20;2.33;;;12.80;99.90;12.20;100793;;;;577435;244;24122;-76
2023/10/01 03:27:59;;;;;;;7.57;1.60;;;12.80;99.90;12.20;100790;;;;601428;237;24137;-74
2023/10/01 03:30:31;;;;;;;5.80;2.10;;;12.80;99.90;12.20;100789;;;;580626;243;24123;-75
2023/10/01 03:32:54;;;;;;;9.85;2.85;;;12.90;99.90;12.20;100788;;;;574029;243;35111;-75
2023/10/01 03:35:22;;;;;;;5.93;2.13;;;12.80;99.90;12.20;100787;;;;590228;241;24091;-76
2023/10/01 03:38:09;;;;;;;5.27;2.20;;;12.90;99.90;12.20;100784;;;;580047;241;24138;-77
2023/10/01 03:40:22;;;;;;;5.80;1.87;;;12.90;99.90;12.20;100788;;;;591266;238;24050;-77
2023/10/01 03:42:53;;;;;;;4.83;2.73;;;12.90;99.90;12.20;100786;;;;592456;237;24081;-77
2023/10/01 03:48:05;;;;;;;5.10;2.10;;;12.90;99.90;12.20;100773;;;;592128;238;24098;-76
2023/10/01 03:50:32;;;;;;;4.47;1.77;;;12.90;99.90;12.20;100768;;;;591778;238;24069;-77
2023/10/01 03:52:59;;;;;;;7.27;2.17;;;12.90;99.90;12.20;100777;;;;591739;238;24038;-77
2023/10/01 03:55:28;;;;;;;12.70;1.90;;;12.90;99.90;12.20;100774;;;;601126;238;24035;-77
2023/10/01 03:58:18;;;;;;;9.50;2.27;;;12.90;99.90;12.20;100782;;;;592219;238;24164;-78
2023/10/01 04:00:42;;;;;;;8.17;1.73;;;12.90;99.90;12.20;100777;;;;592829;236;24118;-76
2023/10/01 04:03:13;;;;;;;7.43;1.83;;;12.90;99.90;12.20;100779;;;;601795;237;24147;-76
2023/10/01 04:05:44;;;;;;;4.90;2.03;;;12.90;99.90;12.20;100776;;;;601472;238;24074;-76
2023/10/01 04:08:11;;;;;;;9.57;3.23;;;12.80;99.90;12.20;100772;;;;586836;238;35966;-78
2023/10/01 04:10:38;;;;;;;15.30;3.00;;;12.80;99.90;12.20;100774;;;;596033;238;34979;-78
2023/10/01 04:13:20;;;;;;;6.03;2.03;;;12.80;99.90;12.20;100776;;;;601104;238;24156;-78
2023/10/01 04:15:36;;;;;;;7.70;2.07;;;12.80;99.90;12.20;100773;;;;590729;238;24089;-77
2023/10/01 04:18:09;;;;;;;4.40;2.07;;;12.80;99.90;12.10;100771;;;;592941;238;24093;-76
2023/10/01 04:20:38;;;;;;;3.13;2.17;;;12.80;99.90;12.10;100771;;;;593445;238;24042;-76
2023/10/01 04:23:06;;;;;;;3.80;2.03;;;12.80;99.90;12.10;100770;;;;593015;238;24044;-77
2023/10/01 04:25:38;;;;;;;5.87;2.27;;;12.80;99.90;12.10;100764;;;;593158;238;24003;-76
2023/10/01 04:28:12;;;;;;;6.63;1.80;;;12.80;99.90;12.10;100764;;;;601895;236;24043;-76
2023/10/01 04:30:39;;;;;;;7.27;1.93;;;12.80;99.90;12.10;100765;;;;592590;238;24089;-75
2023/10/01 04:33:23;;;;;;;5.53;1.63;;;12.80;99.90;12.10;100764;;;;602300;233;24037;-76
2023/10/01 04:35:55;;;;;;;6.50;2.17;;;12.80;99.90;12.10;100772;;;;601939;238;25067;-77
2023/10/01 04:38:20;;;;;;;3.67;1.60;;;12.70;99.90;12.00;100774;;;;592633;237;24020;-76
2023/10/01 04:40:51;;;;;;;5.60;2.00;;;12.70;99.90;12.00;100774;;;;592082;238;24104;-76
2023/10/01 04:43:20;;;;;;;6.47;1.50;;;12.60;99.90;12.00;100785;;;;592292;238;24113;-77
2023/10/01 04:45:52;;;;;;;5.23;2.27;;;12.60;99.90;12.00;100773;;;;602650;238;24039;-77
2023/10/01 04:48:24;;;;;;;3.57;1.80;;;12.60;99.90;12.00;100769;;;;593119;238;25195;-75
2023/10/01 04:50:56;;;;;;;5.17;2.23;;;12.70;99.90;12.00;100767;;;;592713;238;24042;-81
2023/10/01 04:53:25;;;;;;;1.60;1.50;;;12.70;99.90;12.10;100767;;;;593180;238;24081;-77
2023/10/01 04:56:06;;;;;;;2.90;1.83;;;12.70;99.90;12.10;100765;;;;592007;238;24028;-77
2023/10/01 04:58:37;;;;;;;5.43;1.70;;;12.70;99.90;12.10;100766;;;;592724;238;24079;-76
2023/10/01 05:01:11;;;;;;;6.40;2.07;;;12.70;99.90;12.10;100762;;;;602119;236;24027;-76
2023/10/01 05:03:39;;;;;;;6.73;1.60;;;12.70;99.90;12.00;100773;;;;593386;238;24096;-77
2023/10/01 05:06:19;;;;;;;10.13;1.90;;;12.70;99.90;12.00;100781;;;;593744;238;24064;-78
2023/10/01 05:08:47;;;;;;;3.93;2.20;;;12.70;99.90;12.00;100782;;;;603407;237;24057;-78
2023/10/01 05:11:13;;;;;;;7.13;2.10;;;12.60;99.90;12.00;100788;;;;592975;238;24036;-77
2023/10/01 05:13:42;;;;;;;3.43;1.67;;;12.60;99.90;12.00;100785;;;;591691;238;24081;-78
2023/10/01 05:16:16;;;;;;;5.30;1.70;;;12.60;99.90;12.00;100791;;;;593033;238;24093;-76
2023/10/01 05:18:48;;;;;;;7.90;2.20;;;12.60;99.90;12.00;100800;;;;592571;238;24054;-79
2023/10/01 05:21:18;;;;;;;8.60;2.30;;;12.60;99.90;12.00;100797;;;;593234;238;24104;-78
2023/10/01 05:23:47;;;;;;;6.10;2.03;;;12.60;99.90;12.00;100792;;;;602444;237;25098;-77
2023/10/01 05:26:11;;;;;;;4.40;1.80;;;12.60;99.90;12.00;100794;;;;593008;238;24057;-77
2023/10/01 05:28:42;;;;;;;6.40;2.20;;;12.60;99.90;12.00;100798;;;;593431;238;24127;-78
2023/10/01 05:31:15;;;;;;;5.53;2.43;;;12.70;99.90;12.10;100804;;;;594050;238;24070;-80
2023/10/01 05:33:39;;;;;;;4.57;1.70;;;12.80;99.90;12.10;100804;;;;602606;238;24051;-78
2023/10/01 05:36:10;;;;;;;6.03;1.83;;;12.70;99.90;12.10;100802;;;;593071;238;24153;-82
2023/10/01 05:38:34;;;;;;;9.87;2.40;;;12.80;99.90;12.20;100798;;;;592968;238;24044;-81
2023/10/01 05:41:05;;;;;;;7.87;2.30;;;12.80;99.90;12.30;100804;;;;592988;238;24027;-78
2023/10/01 05:43:52;;;;;;;6.83;1.83;;;12.90;99.90;12.30;100811;;;;593093;238;24027;-78
2023/10/01 05:46:08;;;;;;;2.47;1.70;;;13.00;99.90;12.40;100813;;;;592142;238;24154;-75
2023/10/01 05:48:34;;;;;;;9.17;2.33;;;13.10;99.90;12.50;100809;;;;601491;238;24054;-78
2023/10/01 05:51:00;;;;;;;3.43;2.10;;;13.20;99.90;12.60;100811;;;;592002;238;24116;-75
2023/10/01 05:53:29;;;;;;;4.17;2.00;;;13.20;99.90;12.70;100811;;;;592296;238;24091;-81
2023/10/01 05:55:56;;;;;;;3.50;2.00;;;13.30;99.90;12.80;100816;;;;592133;238;24056;-77
2023/10/01 05:58:26;;;;;;;4.60;1.93;;;13.40;99.90;12.90;100811;;;;592385;238;24054;-76
2023/10/01 06:00:56;;;;;;;4.90;1.83;;;13.60;99.90;13.10;100803;;;;592562;238;24052;-84
2023/10/01 06:03:25;;;;;;;7.70;2.23;;;13.70;99.90;13.30;100808;;;;602043;237;24085;-84
2023/10/01 06:05:59;;;;;;;7.50;2.03;;;13.90;99.90;13.40;100807;;;;590432;238;24145;-85
2023/10/01 06:08:32;;;;;;;2.53;1.90;;;14.00;99.90;13.90;100808;;;;592119;238;24061;-83
2023/10/01 06:11:13;;;;;;;3.73;1.50;;;14.30;99.90;14.70;100805;;;;590025;238;24077;-82
2023/10/01 06:13:35;;;;;;;2.07;1.60;;;15.00;99.90;15.60;100810;;;;601692;238;24083;-84
2023/10/01 06:16:13;;;;;;;2.63;1.70;;;15.90;99.90;16.50;100819;;;;592418;238;24057;-76
2023/10/01 06:18:43;;;;;;;7.67;1.80;;;16.80;99.90;17.50;100820;;;;601029;238;24081;-76
2023/10/01 06:21:11;;;;;;;4.00;1.53;;;17.80;99.90;18.30;100824;;;;591776;238;24086;-79
2023/10/01 06:23:51;;;;;;;5.37;1.43;;;18.60;99.90;19.00;100824;;;;591817;237;24055;-77
2023/10/01 06:26:46;;;;;;;4.77;1.60;;;19.40;99.90;19.80;100831;;;;591825;238;24060;-77
2023/10/01 06:29:00;;;;;;;9.97;1.97;;;20.10;99.90;20.40;100825;;;;591490;238;24030;-77
2023/10/01 06:31:30;;;;;;;6.07;2.10;;;20.80;99.90;21.00;100824;;;;591668;238;24050;-77
2023/10/01 06:33:56;;;;;;;3.47;1.70;;;21.40;99.90;21.60;100828;;;;601060;238;23045;-78
2023/10/01 06:36:25;;;;;;;4.87;1.57;;;22.00;99.90;22.30;100834;;;;592545;238;24027;-81
2023/10/01 06:38:55;;;;;;;10.17;2.53;;;22.70;99.90;22.40;100826;;;;592993;238;24046;-83
2023/10/01 06:41:22;;;;;;;5.60;1.90;;;23.00;99.90;21.80;100831;;;;593846;238;23114;-84
2023/10/01 06:43:54;;;;;;;8.77;3.23;;;22.70;99.90;21.00;100832;;;;593893;238;23062;-82
2023/10/01 06:46:19;;;;;;;5.33;2.20;;;21.50;99.90;20.40;100828;;;;597554;232;23062;-86
2023/10/01 06:48:50;;;;;;;5.40;1.67;;;21.50;99.90;19.90;100844;;;;587547;240;24037;-87
2023/10/01 06:51:17;;;;;;;3.87;1.67;;;20.90;99.90;19.60;100844;;;;585605;241;24131;-84
2023/10/01 06:53:48;;;;;;;5.77;2.23;;;20.40;99.90;19.20;100850;;;;587037;240;24069;-85
2023/10/01 06:56:23;;;;;;;6.40;2.20;;;20.00;99.90;18.80;100844;;;;585933;241;24085;-88
2023/10/01 06:58:42;;;;;;;6.07;1.73;;;19.60;99.90;18.60;100845;;;;584715;241;24151;-86
2023/10/01 07:01:34;;;;;;;5.23;1.83;;;19.30;99.90;18.50;100845;;;;574094;246;24104;-85
2023/10/01 07:03:38;;;;;;;6.07;2.33;;;19.20;99.90;18.70;100856;;;;584346;241;24106;-80
2023/10/01 07:06:06;;;;;;;6.40;1.73;;;19.20;99.90;19.00;100854;;;;585924;241;23080;-82
2023/10/01 07:08:37;;;;;;;5.00;1.70;;;19.40;99.90;19.50;100848;;;;586222;241;24072;-78
2023/10/01 07:11:18;;;;;;;6.67;1.70;;;19.80;99.90;20.80;100855;;;;586183;241;24066;-78
2023/10/01 07:13:33;;;;;;;6.53;1.83;;;20.80;99.90;22.00;100850;;;;584520;241;24104;-78
2023/10/01 07:16:01;;;;;;;6.70;1.77;;;22.10;99.90;22.70;100856;;;;586104;241;24100;-79
2023/10/01 07:18:32;;;;;;;4.63;1.57;;;23.40;99.90;23.00;100851;;;;585711;241;24059;-79
2023/10/01 07:21:00;;;;;;;5.43;1.70;;;23.40;99.90;22.70;100858;;;;585035;241;24100;-79
2023/10/01 07:23:26;;;;;;;4.93;1.87;;;23.30;99.90;23.20;100858;;;;592652;234;23060;-82
2023/10/01 07:26:00;;;;;;;6.43;1.80;;;23.60;99.90;23.50;100866;;;;602867;234;23074;-80
2023/10/01 07:28:28;;;;;;;3.90;2.00;;;24.00;99.90;24.10;100862;;;;603125;234;24057;-81
2023/10/01 07:31:02;;;;;;;4.03;1.70;;;24.50;99.90;24.90;100866;;;;603041;234;23009;-78
2023/10/01 07:33:28;;;;;;;4.73;2.17;;;25.20;99.90;25.80;100876;;;;602989;234;24066;-78
2023/10/01 07:36:01;;;;;;;4.13;1.83;;;26.10;99.90;26.60;100880;;;;603006;233;23007;-77
2023/10/01 07:38:46;;;;;;;6.37;1.80;;;27.00;99.90;27.00;100877;;;;603535;234;23049;-78
2023/10/01 07:40:59;;;;;;;4.47;2.00;;;27.50;97.70;26.60;100879;;;;598471;239;24075;-79
2023/10/01 07:43:30;;;;;;;3.90;1.63;;;27.30;96.30;26.00;100875;;;;579872;244;24127;-79
2023/10/01 07:46:01;;;;;;;5.27;1.87;;;26.80;95.90;26.10;100885;;;;579816;244;23080;-79
2023/10/01 07:48:29;;;;;;;3.23;1.67;;;26.80;95.70;26.70;100884;;;;579649;244;23086;-77
2023/10/01 07:50:57;;;;;;;5.50;2.20;;;27.10;94.90;27.60;100894;;;;579930;244;23103;-78
2023/10/01 07:53:42;;;;;;;4.85;1.87;;;28.80;92.20;28.50;100895;;;;580785;243;24141;-77
2023/10/01 07:55:58;;;;;;;3.58;2.05;;;29.20;89.90;28.70;100891;;;;575753;243;23108;-78
2023/10/01 07:58:25;;;;;;;6.68;1.98;;;29.20;88.00;28.60;100896;;;;590515;241;23122;-77
2023/10/01 08:01:32;;;;;;;3.08;1.85;;;29.20;88.00;28.50;100892;;;;591252;238;23048;-79
2023/10/01 08:03:28;;;;;;;2.45;1.55;;;29.20;86.80;28.00;100892;;;;589201;239;24105;-79
2023/10/01 08:06:10;;;;;;;5.93;1.92;;;28.80;86.40;27.60;100897;;;;591040;239;23046;-80
2023/10/01 08:08:58;;;;;;;4.32;1.67;;;28.40;86.40;27.80;100906;;;;590263;239;23103;-81
2023/10/01 08:10:58;;;;;;;11.50;1.98;;;27.90;86.10;27.10;100908;;;;588202;239;23072;-84
2023/10/01 08:13:28;;;;;;;5.85;1.92;;;27.20;88.10;26.10;100913;;;;590676;239;23120;-84
2023/10/01 08:15:58;;;;;;;4.47;1.73;;;26.40;90.00;25.30;100905;;;;590494;239;23054;-76
2023/10/01 08:18:35;;;;;;;3.10;1.53;;;26.40;90.00;24.60;100911;;;;590626;239;24103;-80
2023/10/01 08:21:07;;;;;;;6.10;2.03;;;25.70;90.70;23.90;100918;;;;589187;239;24055;-78
2023/10/01 08:23:34;;;;;;;3.23;1.63;;;24.90;91.60;23.30;100922;;;;589354;239;23070;-78
2023/10/01 08:28:41;;;;;;;5.23;1.87;;;23.50;93.90;22.00;100913;;;;582038;239;23126;-79
2023/10/01 08:31:42;;;;;;;5.93;1.90;;;22.80;95.30;21.80;100918;;;;589569;239;23104;-79
2023/10/01 08:33:42;;;;;;;3.33;1.70;;;22.30;96.90;21.50;100912;;;;589365;239;23140;-87
2023/10/01 08:36:12;;;;;;;8.80;1.63;;;22.00;98.00;21.40;100918;;;;590274;239;24045;-88
2023/10/01 08:38:34;;;;;;;4.87;1.50;;;21.90;98.50;21.30;100918;;;;590127;239;24078;-86
2023/10/01 08:41:01;;;;;;;5.43;1.60;;;21.80;98.30;21.20;100914;;;;599644;239;24038;-80
2023/10/01 08:43:28;;;;;;;5.93;1.30;;;21.70;98.70;21.00;100911;;;;588761;239;24113;-78
2023/10/01 08:45:54;;;;;;;3.77;1.20;;;21.50;99.00;20.80;100914;;;;590487;239;23083;-78
2023/10/01 08:48:35;;;;;;;5.30;1.53;;;21.40;99.50;20.70;100921;;;;600064;239;24029;-85
2023/10/01 08:50:56;;;;;;;3.07;1.50;;;21.20;99.90;20.40;100915;;;;591099;239;24053;-77
2023/10/01 08:53:21;;;;;;;3.00;1.27;;;21.00;99.90;20.20;100922;;;;590908;238;24088;-79
2023/10/01 08:56:04;;;;;;;3.17;1.47;;;20.80;99.90;19.90;100919;;;;592369;238;23044;-77
2023/10/01 09:00:51;;;;;;;6.07;1.50;;;20.20;99.90;19.70;100912;;;;592467;238;24019;-76
2023/10/01 09:03:32;;;;;;;5.53;1.80;;;20.20;99.90;20.80;100916;;;;592372;238;24052;-80
2023/10/01 09:06:19;;;;;;;5.63;1.87;;;21.00;99.90;21.60;100913;;;;579585;248;24092;-80
2023/10/01 09:08:43;;;;;;;7.87;1.87;;;22.00;99.90;21.90;100913;;;;578373;245;24072;-80
2023/10/01 09:11:17;;;;;;;4.40;1.30;;;22.30;99.90;21.70;100907;;;;576387;246;23105;-81
2023/10/01 09:16:43;;;;;;;7.57;1.70;;;22.30;99.90;21.60;100907;;;;581778;243;24077;-86
2023/10/01 09:19:51;;;;;;;3.87;1.50;;;22.20;99.90;21.40;100910;;;;573918;247;23125;-78
2023/10/01 09:21:39;;;;;;;5.37;1.60;;;22.00;99.90;21.30;100905;;;;576791;246;23139;-79
2023/10/01 09:24:32;;;;;;;5.23;1.53;;;21.90;99.90;21.10;100914;;;;579934;242;24060;-77
2023/10/01 09:26:53;;;;;;;2.77;1.50;;;21.70;99.90;21.00;100914;;;;586225;243;24068;-81
2023/10/01 09:29:27;;;;;;;5.57;2.10;;;21.60;99.90;21.40;100907;;;;574917;243;35054;-76
2023/10/01 09:31:56;;;;;;;3.50;1.93;;;21.80;99.90;21.60;100902;;;;583260;240;24104;-75
2023/10/01 09:34:46;;;;;;;4.60;1.77;;;22.10;99.90;22.20;100909;;;;592390;238;24065;-78
2023/10/01 09:37:07;;;;;;;5.23;2.10;;;22.70;99.90;23.10;100908;;;;581958;243;23175;-76
2023/10/01 09:39:38;;;;;;;3.73;1.90;;;23.60;98.20;24.10;100914;;;;589625;238;24086;-75
2023/10/01 09:42:22;;;;;;;5.40;1.83;;;25.80;94.90;25.20;100917;;;;593617;238;23073;-78
2023/10/01 09:44:46;;;;;;;4.37;1.87;;;25.70;94.90;25.90;100925;;;;597543;238;23097;-80
2023/10/01 09:47:10;;;;;;;4.20;2.03;;;26.70;92.90;26.20;100928;;;;591862;235;23043;-82
2023/10/01 09:49:31;;;;;;;3.30;1.97;;;27.10;91.50;26.60;100925;;;;576194;243;23088;-76
2023/10/01 09:51:58;;;;;;;4.97;1.70;;;27.50;90.30;27.10;100920;;;;592363;238;23037;-77
2023/10/01 09:54:28;;;;;;;4.00;1.73;;;28.10;88.40;27.60;100923;;;;600331;238;23080;-77
2023/10/01 09:56:53;;;;;;;3.78;2.03;;;28.70;85.70;28.00;100917;;;;598389;238;24125;-77
2023/10/01 09:59:26;;;;;;;2.22;1.70;;;29.00;83.10;28.10;100921;;;;590323;241;23064;-78
2023/10/01 10:01:53;;;;;;;6.40;1.85;;;29.50;80.00;28.40;100917;;;;599041;238;23080;-79
2023/10/01 10:04:23;;;;;;;5.68;1.85;;;29.70;77.30;28.60;100915;;;;590839;235;23036;-81
2023/10/01 10:06:59;;;;;;;3.62;2.08;;;29.90;76.10;28.70;100917;;;;592027;238;24119;-79
2023/10/01 10:09:27;;;;;;;5.00;2.00;;;29.80;76.00;28.70;100914;;;;581943;238;23097;-81
2023/10/01 10:11:58;;;;;;;2.22;1.65;;;29.70;74.40;28.40;100920;;;;591876;240;23085;-88
2023/10/01 10:14:33;;;;;;;2.58;1.48;;;29.30;73.90;27.90;100920;;;;590129;238;23021;-81
2023/10/01 10:17:19;;;;;;;4.47;1.90;;;29.30;73.90;27.40;100918;;;;585271;239;23066;-85
2023/10/01 10:23:37;;;;;;;3.62;1.70;;;28.40;76.10;26.80;100919;;;;584279;242;23035;-77
2023/10/01 10:25:43;;;;;;;5.70;2.15;;;28.00;75.80;26.20;100920;;;;583931;242;23051;-77
2023/10/01 10:28:12;;;;;;;4.20;1.67;;;27.40;76.40;26.00;100914;;;;586064;240;24064;-83
2023/10/01 10:30:43;;;;;;;2.53;2.00;;;27.10;77.40;25.50;100919;;;;586710;240;23064;-83
2023/10/01 12:36:31;;;;;;;2.73;1.50;;;19.50;95.20;18.70;100897;;;;586119;232;23161;-83
2023/10/01 12:38:40;;;;;;;3.40;2.07;;;19.30;95.70;18.60;100902;;;;582899;245;23202;-81
2023/10/01 12:41:08;;;;;;;8.48;2.15;;;19.20;96.20;18.50;100893;;;;568957;245;46143;-85
2023/10/01 12:43:42;;;;;;;5.00;1.70;;;19.10;95.70;18.30;100904;;;;573695;246;23209;-83
2023/10/01 12:46:09;;;;;;;3.03;1.80;;;18.90;95.90;18.20;100905;;;;572962;246;24147;-81
2023/10/01 12:48:37;;;;;;;6.07;1.73;;;18.80;96.10;18.10;100890;;;;589392;239;24102;-82
2023/10/01 12:51:08;;;;;;;5.23;1.97;;;18.60;96.40;17.90;100902;;;;598352;239;23054;-83
2023/10/01 12:53:47;;;;;;;4.13;1.70;;;18.50;96.30;17.80;100888;;;;584826;239;24044;-82
2023/10/01 12:56:10;;;;;;;4.00;2.33;;;18.40;96.70;17.70;100889;;;;598098;239;24014;-81
2023/10/01 12:58:39;;;;;;;4.17;1.93;;;18.20;97.20;17.50;100886;;;;590905;239;24000;-83
2023/10/01 13:01:54;;;;;;;3.17;1.53;;;18.10;97.60;17.40;100895;;;;584647;239;24087;-85
2023/10/01 13:03:42;;;;;;;2.37;1.23;;;18.00;98.10;17.30;100885;;;;578935;244;24115;-82
2023/10/01 13:06:05;;;;;;;5.33;2.40;;;17.80;98.70;17.30;100889;;;;578334;243;24082;-83
2023/10/01 13:08:34;;;;;;;5.17;1.80;;;17.80;98.70;17.20;100887;;;;577574;241;24043;-83
2023/10/01 13:11:02;;;;;;;2.80;1.97;;;17.80;99.00;17.10;100886;;;;589241;238;24056;-82
2023/10/01 13:13:30;;;;;;;3.23;1.57;;;17.70;99.90;17.10;100891;;;;581830;242;23123;-85
2023/10/01 13:15:59;;;;;;;8.37;1.90;;;17.70;99.90;17.10;100887;;;;581879;243;24116;-85
2023/10/01 13:18:29;;;;;;;3.10;1.83;;;17.70;99.90;17.20;100890;;;;583808;238;24094;-81
2023/10/01 13:21:13;;;;;;;3.53;1.90;;;17.70;99.90;17.30;100886;;;;592575;238;23104;-81
2023/10/01 13:23:42;;;;;;;4.83;1.73;;;17.80;99.90;17.30;100889;;;;592270;238;24077;-80
2023/10/01 13:26:15;;;;;;;5.73;2.37;;;17.90;99.90;17.40;100884;;;;592575;238;24084;-80
2023/10/01 13:29:00;;;;;;;3.80;1.90;;;17.90;99.90;17.40;100894;;;;592301;238;24065;-80
2023/10/01 13:39:48;;;;;;;5.83;1.90;;;17.90;99.90;17.30;100885;;;;587830;238;24054;-80
2023/10/01 14:09:54;;;;;;;3.57;1.63;;;17.60;99.90;16.90;100883;;;;590721;239;24023;-78
2023/10/01 14:15:20;;;;;;;5.97;1.83;;;17.40;99.90;16.70;100870;;;;586143;240;24072;-79
2023/10/01 14:17:35;;;;;;;6.57;2.00;;;17.30;99.90;16.60;100878;;;;585223;240;24046;-80
2023/10/01 14:20:08;;;;;;;3.50;1.87;;;17.20;99.90;16.50;100865;;;;588189;238;24047;-78
2023/10/01 14:22:49;;;;;;;2.47;1.50;;;17.10;99.90;16.40;100866;;;;587958;241;24095;-78
2023/10/01 14:25:20;;;;;;;2.30;1.40;;;17.00;99.90;16.30;100870;;;;587704;237;23991;-79
2023/10/01 14:27:29;;;;;;;8.17;1.73;;;16.90;99.90;16.20;100871;;;;585661;238;24073;-80
2023/10/01 14:30:02;;;;;;;5.40;2.03;;;16.80;99.90;16.10;100872;;;;588872;240;24057;-81
2023/10/01 14:32:38;;;;;;;4.97;1.80;;;16.70;99.90;16.00;100863;;;;586162;240;24027;-81
2023/10/01 14:34:57;;;;;;;4.53;1.87;;;16.50;99.90;16.00;100863;;;;599109;239;24014;-81
2023/10/01 14:37:25;;;;;;;2.87;1.60;;;16.50;99.90;15.90;100860;;;;585636;240;27216;-81